Pavlo Dovbyk

Recruteur en chef - Dynamo Kyiv
31 Oct 2027
Dimanche
Processus

Personnalité

Adaptabilité (4) Ambition (10) Controverse (19) Loyauté (11) Pression (19) Professionnalisme (12) Sportivité (10) Tempérament (3)

Profil

Style d'entraînement Démocratique
Diplôme National A
Détermination 9
Gestion des joueurs 10
Motivation 15
Discipline 6
Satisfaction professionnelle
100%
Fatigue
0%
Rôle Recruteur en chef
Salaire 52.9K p/s
Contrat 14.03.2028

Performance

Comportement Bon
Efficacité de l'entraînement
52%
Développement des joueurs
35%
Prévention des blessures
30%
Mise en place tactique
50%

Événements récents

A évalué un joueur 49j
A participé à une réunion de recrutement 49j
A recommandé une cible de transfert 49j
A recommandé une cible de transfert 49j
A évalué un joueur 56j
A évalué un joueur 56j
A évalué un joueur 56j
A évalué un joueur 56j

Suivi en cours

138
Joueur Club Statut Capacité Confiance Observé Dernière observation Dernier vote
Ignacio Russo Tigre Actif 128 / 121 40% 2 07.09.2027 -
Javi Puado Espanyol Actif 146 / 151 40% 1 07.09.2027 -
Juan Manuel Gutiérrez Defensa y Justicia Actif 124 / 126 40% 3 06.09.2027 -
Emersonn Ipswich Town Actif 135 / 132 40% 1 06.09.2027 -
Gonzalo Plata River Plate Actif 133 / 138 40% 2 05.09.2027 -
Patson Daka Leicester City Actif 130 / 130 40% 1 05.09.2027 -
Haji Wright Coventry City Actif 135 / 138 40% 2 04.09.2027 -
Elijah Adebayo Luton Town Actif 133 / 130 40% 2 04.09.2027 -
Exequiel Zeballos Boca Juniors Actif 126 / 137 40% 2 03.09.2027 -
Dwight McNeil Crystal Palace Actif 150 / 148 40% 1 03.09.2027 -
Agustín Ruberto River Plate Actif 124 / 128 40% 2 02.09.2027 -
Daniel Barrea Godoy Cruz Perdu 122 / 121 40% 3 01.09.2027 -
Tommy Conway Middlesbrough Actif 131 / 135 40% 1 31.08.2027 -
Callum O'Hare Sheffield United Actif 126 / 136 40% 1 31.08.2027 -
Aune Heggebø West Bromwich Albion Actif 126 / 126 40% 1 30.08.2027 -
Lorenzo Lucca Napoli Actif 143 / 150 40% 1 28.08.2027 -
Billal Messaoudi JS Kabylie Actif 123 / 118 40% 2 27.08.2027 -
Germán Valera Elche Actif 133 / 137 40% 1 25.08.2027 -
Yousef Salech Cardiff City Actif 131 / 135 40% 1 25.08.2027 -
Edmund Baidoo Borussia Dortmund Actif 126 / 134 40% 1 23.08.2027 -
Raúl Lozano Quilmes Perdu 121 / 119 40% 1 21.08.2027 -
Cyriaque Irié SC Freiburg Actif 122 / 129 40% 1 21.08.2027 -
Dilan Godoy Vélez Actif 103 / 115 40% 1 21.08.2027 -
Tomáš Suslov Hellas Verona Actif 136 / 138 40% 1 19.08.2027 -
Santiago Pierotti Lecce Actif 138 / 137 40% 1 19.08.2027 -
Antonino Gallo Lecce Actif 133 / 135 40% 2 18.08.2027 -
Akor Adams Venezia Actif 146 / 140 40% 3 18.08.2027 -
Pontus Almqvist Parma Actif 130 / 126 40% 1 18.08.2027 -
Kristian Thorstvedt Sassuolo Actif 137 / 138 40% 1 15.08.2027 -
Romano Floriani Mussolini Avellino Actif 136 / 129 40% 1 15.08.2027 -
Isma Ruiz Córdoba Actif 143 / 136 40% 2 13.08.2027 -
Amin Sarr Hellas Verona Actif 141 / 129 40% 1 13.08.2027 -
Riccardo Marchizza Frosinone Actif 133 / 126 40% 1 12.08.2027 -
Thierry Rendall Correia Venezia Actif 139 / 140 40% 1 11.08.2027 -
Ilias Akhomach Villarreal Actif 151 / 153 40% 1 11.08.2027 -
Javi Martínez Eibar Actif 138 / 127 40% 4 10.08.2027 -
Mateu Morey Mallorca Actif 132 / 141 40% 1 10.08.2027 -
Todd Cantwell Blackburn Rovers Actif 142 / 127 40% 2 08.08.2027 -
Ethan Williams Peterborough United Actif 118 / 125 40% 1 08.08.2027 -
Jason Knight Bristol City Actif 129 / 129 40% 2 05.08.2027 -
Aidomo Emakhu Oxford United Actif 122 / 121 40% 3 05.08.2027 -
Callum Lang Preston Actif 129 / 117 40% 2 02.08.2027 -
Imrân Louza Watford Actif 133 / 139 40% 1 01.08.2027 -
Kristoffer Lund Birmingham Actif 130 / 138 40% 1 01.08.2027 -
Dany Mota Monza Actif 146 / 135 40% 1 01.08.2027 -
Sam Greenwood Bristol City Actif 118 / 131 40% 1 01.08.2027 -
Luca Moro Padova Actif 121 / 125 40% 1 31.07.2027 -
Aaron Connolly Leyton Orient Actif 126 / 126 40% 4 30.07.2027 -
Konan N'Dri Lecce Actif 127 / 131 40% 1 30.07.2027 -
Joel Bagan Cardiff City Actif 113 / 119 40% 1 29.07.2027 -
Stanley Mills Oxford United Actif 124 / 122 40% 3 27.07.2027 -
Haissem Hassan Bloemfontein Celtic Actif 153 / 133 40% 3 27.07.2027 -
David Okereke Cremonese Actif 136 / 120 40% 1 27.07.2027 -
Francisco Machis Atletico Venezuela Actif 125 / 123 40% 2 26.07.2027 -
Tijjani Noslin Lazio Actif 140 / 135 40% 1 24.07.2027 -
Richard Koné Queens Park Rangers Actif 130 / 129 40% 1 22.07.2027 -
Mikey Johnston West Bromwich Albion Actif 129 / 125 40% 1 22.07.2027 -
Sidiki Chérif Coventry City Actif 140 / 135 40% 1 21.07.2027 -
Pedro Mendes Modena Actif 130 / 127 40% 1 21.07.2027 -
Lorenzo Colombo Genoa Actif 138 / 141 40% 1 20.07.2027 -
Michael Baidoo Plymouth Argyle Actif 137 / 135 40% 2 17.07.2027 -
Rocco Vata Watford Actif 118 / 131 40% 2 16.07.2027 -
Stiven Shpendi Empoli Actif 123 / 124 40% 3 16.07.2027 -
Myles Peart-Harris Bristol Rovers Actif 134 / 124 40% 3 16.07.2027 -
Bae Jun-Ho Stoke City Actif 135 / 127 40% 1 16.07.2027 -
Kieran Dowell Hull City Actif 120 / 120 40% 2 13.07.2027 -
Brodie Spencer Oxford United Actif 124 / 123 40% 1 13.07.2027 -
Mark Sykes Millwall Actif 123 / 126 40% 1 11.07.2027 -
Lewis Bate Stockport County Actif 116 / 126 40% 1 11.07.2027 -
Jay Stansfield Birmingham Actif 135 / 132 40% 1 10.07.2027 -
Tomi Horvat Bristol City Actif 124 / 125 40% 1 10.07.2027 -
Marcus McGuane Huddersfield Town Actif 120 / 124 40% 1 08.07.2027 -
Alfie Doughty Millwall Actif 133 / 128 40% 1 07.07.2027 -
Jack Diamond Stockport County Actif 129 / 119 40% 1 06.07.2027 -
Diego Livyi Bereh Actif 102 / 107 62% 1 05.07.2027 Approuver
Jayden Nelson Bolton Wanderers Actif 122 / 115 40% 2 04.07.2027 -
Josh Edwards Charlton Athletic Actif 121 / 123 40% 1 02.07.2027 -
Marc Bola Watford Actif 128 / 121 40% 2 29.06.2027 -
Jacques Ekomié Wrexham Actif 125 / 128 40% 1 29.06.2027 -
Cameron Pring Bristol City Actif 138 / 130 40% 1 28.06.2027 -
Ali Youssef Apollon Actif 123 / 122 40% 2 23.06.2027 -
Jérémy Le Douaron Palermo Actif 133 / 127 40% 1 23.06.2027 -
Mathias Kvistgaarden Norwich City Actif 115 / 122 40% 1 21.06.2027 -
Sam Bell Bristol City Actif 122 / 118 40% 1 19.06.2027 -
Ryan Oné Sheffield United Actif 115 / 119 40% 1 19.06.2027 -
Daryl Dike West Bromwich Albion Actif 117 / 119 40% 1 19.06.2027 -
Scott Twine Bristol City Actif 124 / 120 40% 1 17.06.2027 -
Sonny Carey Charlton Athletic Actif 121 / 119 40% 2 16.06.2027 -
Ross McCrorie Bristol City Actif 119 / 124 40% 1 16.06.2027 -
Roman Vantukh LNZ Actif 112 / 105 40% 2 23.02.2027 -
Jorge Salinas Racing Santander Actif 130 / 126 40% 1 23.02.2027 -
Fawaaz Basadien Mamelodi Sundowns Actif 131 / 116 40% 1 22.02.2027 -
Relebohile Mofokeng Orlando Pirates Actif 125 / 130 40% 2 21.02.2027 -
Moha Karpaty Actif 115 / 113 40% 2 21.02.2027 -
Casper De Norre Millwall Actif 127 / 117 40% 1 21.02.2027 -
Amir Hossein Hosseinzadeh Tractor Refusé 136 / 122 40% 1 20.02.2027 Plus d'infos
Luther Lorch Free State Stars Actif 115 / 120 40% 2 17.02.2027 -
Pau Casadesús Granada Actif 113 / 122 40% 1 15.02.2027 -
Renato Júnior Al Wasl Actif 110 / 121 40% 1 15.02.2027 -
Morlaye Sylla Damac Actif 119 / 134 40% 2 13.02.2027 -
Maicon Levski Actif 128 / 121 40% 1 13.02.2027 -
Fashion Sakala Al-Fayha Actif 136 / 117 40% 1 12.02.2027 -
Giuseppe Di Serio Spezia Actif 125 / 118 40% 1 12.02.2027 -
Morgan Erasmus Ajax Cape Town Actif 106 / 118 40% 2 09.02.2027 -
Hugo Moura Al-Fayha Actif 112 / 122 40% 1 09.02.2027 -
Joel Andersson Ludogorets Actif 121 / 127 40% 1 07.02.2027 -
Mamadou Coulibaly Al Jazira Actif 117 / 119 40% 1 04.02.2027 -
Jaime Seoane Al-Faisaly Actif 129 / 137 40% 1 03.02.2027 -
Bohdan Mykhailichenko Polissia Actif 112 / 115 40% 2 02.02.2027 -
Filip Kaloč Ludogorets Actif 126 / 122 40% 1 02.02.2027 -
Ilir Krasniqi Polissia Actif 125 / 118 40% 2 01.02.2027 -
Petro Stasiuk Bukovyna Actif 91 / 104 62% 1 31.01.2027 Approuver
Aldair Faustino Levski Actif 116 / 118 40% 1 30.01.2027 -
Oleksandr Yatsyk Metalist Actif 111 / 114 40% 1 29.01.2027 -
Terry Devlin Portsmouth Actif 122 / 124 40% 1 29.01.2027 -
Xeber Alkain Karpaty Actif 127 / 127 40% 1 29.01.2027 -
Nicolás Arévalo Metalist Actif 125 / 123 40% 1 27.01.2027 -
Vitalii Dakhnovskyi Bukovyna Actif 100 / 105 62% 1 26.01.2027 Approuver
Morgan Manyama SuperSport United Actif 105 / 126 40% 1 26.01.2027 -
Soufiane Rahimi Al Ain Actif 148 / 143 40% 1 26.01.2027 -
Kelvin Yeboah Minnesota United FC Actif 110 / 116 40% 3 23.08.2026 -
Antony Portland Timbers Actif 118 / 140 40% 1 20.08.2026 -
Morgan Guilavogui Real Salt Lake Actif 136 / 120 40% 1 19.08.2026 -
Facundo Torres Austin FC Actif 118 / 143 40% 1 18.08.2026 -
Cheikh Sabaly Vancouver Whitecaps Actif 126 / 118 40% 1 18.08.2026 -
Riqui Puig LA Galaxy Actif 116 / 127 40% 1 16.08.2026 -
David Schnegg Charlotte Football Club Actif 121 / 124 40% 2 14.08.2026 -
Hannes Wolf New York City Actif 123 / 124 40% 1 14.08.2026 -
Gabriel Pirani San Diego Football Club Actif 138 / 136 40% 1 12.08.2026 -
Lucas Sanabria LA Galaxy Actif 136 / 126 40% 2 11.08.2026 -
Lewis Morgan San Diego Football Club Actif 127 / 131 40% 1 11.08.2026 -
Paxten Aaronson Colorado Rapids Actif 146 / 129 40% 1 11.08.2026 -
David Brekalo Orlando City Actif 115 / 119 40% 1 11.08.2026 -
Evander FC Cincinnati Actif 138 / 140 40% 2 09.08.2026 -
André Luiz Sporting Kansas City Actif 127 / 118 40% 2 07.08.2026 -
Brais Méndez Columbus Crew Actif 162 / 155 40% 1 06.08.2026 -
Allan Saint-Maximin Charlotte Football Club Actif 142 / 132 40% 1 06.08.2026 -
Pedro de la Vega Seattle Sounders Actif 125 / 128 40% 1 04.08.2026 -